createdAt,value
2023-01-18T00:01:16.391Z,2.05
2023-01-18T00:03:43.526Z,2.20
2023-01-18T00:06:11.580Z,2.03
2023-01-18T00:08:40.271Z,1.69
2023-01-18T00:11:16.024Z,1.84
2023-01-18T00:13:43.737Z,1.70
2023-01-18T00:16:15.681Z,1.90
2023-01-18T00:18:43.508Z,1.76
2023-01-18T00:21:12.270Z,1.91
2023-01-18T00:23:39.370Z,1.96
2023-01-18T00:26:08.983Z,1.63
2023-01-18T00:28:37.111Z,1.91
2023-01-18T00:31:17.891Z,2.01
2023-01-18T00:33:46.235Z,1.98
2023-01-18T00:36:14.421Z,1.97
2023-01-18T00:38:42.289Z,2.04
2023-01-18T00:41:09.537Z,1.99
2023-01-18T00:43:39.492Z,2.02
2023-01-18T00:46:12.421Z,2.05
2023-01-18T00:48:41.063Z,2.22
2023-01-18T00:51:09.925Z,2.13
2023-01-18T00:53:39.922Z,1.97
2023-01-18T00:56:11.497Z,1.95
2023-01-18T00:58:38.634Z,1.85
2023-01-18T01:01:07.635Z,1.83
2023-01-18T01:03:54.818Z,1.97
2023-01-18T01:06:44.506Z,1.80
2023-01-18T01:09:29.325Z,2.02
2023-01-18T01:12:16.971Z,2.08
2023-01-18T01:15:05.746Z,1.96
2023-01-18T01:17:54.477Z,2.16
2023-01-18T01:20:41.104Z,2.00
2023-01-18T01:23:35.750Z,2.04
2023-01-18T01:26:13.827Z,1.83
2023-01-18T01:28:45.564Z,2.14
2023-01-18T01:31:14.762Z,2.09
2023-01-18T01:33:42.120Z,2.01
2023-01-18T01:36:18.064Z,1.84
2023-01-18T01:38:45.325Z,1.88
2023-01-18T01:41:27.889Z,1.80
2023-01-18T01:43:56.254Z,1.99
2023-01-18T01:46:35.391Z,2.02
2023-01-18T01:49:24.123Z,2.04
2023-01-18T01:52:22.616Z,2.20
2023-01-18T01:55:23.075Z,2.14
2023-01-18T01:58:03.622Z,2.11
2023-01-18T02:00:31.431Z,2.17
2023-01-18T02:03:05.769Z,2.24
2023-01-18T02:05:36.015Z,1.93
2023-01-18T02:08:04.137Z,1.97
2023-01-18T02:10:31.348Z,2.06
2023-01-18T02:13:00.511Z,1.44
2023-01-18T02:15:40.387Z,1.70
2023-01-18T02:18:12.024Z,1.96
2023-01-18T02:21:03.915Z,1.97
2023-01-18T02:23:46.797Z,2.13
2023-01-18T02:26:37.943Z,1.98
2023-01-18T02:29:17.704Z,1.82
2023-01-18T02:32:02.238Z,1.80
2023-01-18T02:34:41.163Z,1.90
2023-01-18T02:37:26.430Z,2.14
2023-01-18T02:40:17.837Z,2.08
2023-01-18T02:43:03.964Z,1.69
2023-01-18T02:46:05.739Z,2.01
2023-01-18T02:48:42.934Z,1.84
2023-01-18T02:51:10.353Z,1.75
2023-01-18T02:53:44.545Z,1.77
2023-01-18T02:56:21.322Z,2.02
2023-01-18T02:59:01.113Z,2.05
2023-01-18T03:01:41.776Z,2.20
2023-01-18T03:04:35.618Z,2.00
2023-01-18T03:07:12.150Z,2.20
2023-01-18T03:09:41.794Z,2.25
2023-01-18T03:12:21.752Z,2.22
2023-01-18T03:15:10.072Z,2.18
2023-01-18T03:17:50.172Z,2.13
2023-01-18T03:20:25.859Z,2.12
2023-01-18T03:23:19.847Z,2.15
2023-01-18T03:25:50.609Z,1.97
2023-01-18T03:28:51.856Z,2.19
2023-01-18T03:31:40.966Z,2.08
2023-01-18T03:34:22.618Z,1.80
2023-01-18T03:36:53.159Z,1.92
2023-01-18T03:39:36.890Z,1.93
2023-01-18T03:42:15.117Z,2.13
2023-01-18T03:44:50.973Z,2.34
2023-01-18T03:47:18.256Z,2.21
2023-01-18T03:49:45.709Z,2.20
2023-01-18T03:52:23.137Z,2.28
2023-01-18T03:55:02.665Z,2.20
2023-01-18T03:57:39.651Z,2.29
2023-01-18T04:00:09.268Z,2.03
2023-01-18T04:02:47.426Z,1.99
2023-01-18T04:05:15.441Z,2.00
2023-01-18T04:07:43.248Z,2.08
2023-01-18T04:10:11.279Z,2.18
2023-01-18T04:12:39.780Z,2.14
2023-01-18T04:15:07.494Z,2.24
2023-01-18T04:17:34.592Z,2.30
2023-01-18T04:20:01.833Z,2.36
2023-01-18T04:22:30.508Z,2.43
2023-01-18T04:24:57.576Z,2.29
2023-01-18T04:27:27.718Z,2.42
2023-01-18T04:29:54.899Z,2.29
2023-01-18T04:32:22.069Z,2.11
2023-01-18T04:34:49.153Z,2.15
2023-01-18T04:37:16.261Z,2.29
2023-01-18T04:39:43.399Z,2.47
2023-01-18T04:42:10.448Z,2.41
2023-01-18T04:44:37.606Z,2.43
2023-01-18T04:47:04.758Z,1.84
2023-01-18T04:49:31.866Z,2.04
2023-01-18T04:51:58.945Z,2.18
2023-01-18T04:54:26.199Z,2.18
2023-01-18T04:56:53.701Z,2.26
2023-01-18T04:59:20.807Z,2.26
2023-01-18T05:01:47.873Z,2.31
2023-01-18T05:04:14.951Z,2.36
2023-01-18T05:06:42.054Z,2.37
2023-01-18T05:09:12.592Z,2.32
2023-01-18T05:11:39.749Z,2.43
2023-01-18T05:14:06.852Z,2.35
2023-01-18T05:16:34.078Z,2.16
2023-01-18T05:19:01.405Z,2.34
2023-01-18T05:21:28.801Z,2.38
2023-01-18T05:23:55.878Z,2.15
2023-01-18T05:26:24.583Z,2.13
2023-01-18T05:28:57.292Z,2.23
2023-01-18T05:31:25.092Z,2.03
2023-01-18T05:33:52.506Z,2.15
2023-01-18T05:36:19.568Z,2.09
2023-01-18T05:38:46.936Z,2.16
2023-01-18T05:41:14.008Z,2.31
2023-01-18T05:43:41.352Z,2.06
2023-01-18T05:46:08.497Z,2.23
2023-01-18T05:48:35.698Z,2.18
2023-01-18T05:51:11.293Z,1.95
2023-01-18T05:53:39.875Z,2.07
2023-01-18T05:56:08.737Z,2.34
2023-01-18T05:58:36.140Z,2.25
2023-01-18T06:01:03.395Z,1.72
2023-01-18T06:03:30.610Z,1.85
2023-01-18T06:05:59.376Z,1.50
2023-01-18T06:08:26.702Z,1.73
2023-01-18T06:10:55.946Z,2.00
2023-01-18T06:13:24.084Z,1.32
2023-01-18T06:15:52.043Z,1.72
2023-01-18T06:18:19.276Z,1.36
2023-01-18T06:20:46.803Z,1.36
2023-01-18T06:23:13.894Z,1.30
2023-01-18T06:25:41.164Z,1.23
2023-01-18T06:28:08.275Z,1.37
2023-01-18T06:30:35.400Z,1.73
2023-01-18T06:33:06.902Z,1.79
2023-01-18T06:35:34.624Z,2.01
2023-01-18T06:38:03.429Z,1.81
2023-01-18T06:40:31.032Z,1.91
2023-01-18T06:42:58.696Z,2.12
2023-01-18T06:45:26.409Z,2.18
2023-01-18T06:47:53.667Z,2.18
2023-01-18T06:50:21.325Z,2.36
2023-01-18T06:52:48.707Z,2.51
2023-01-18T06:55:16.056Z,2.40
2023-01-18T06:57:43.202Z,2.22
2023-01-18T07:00:12.186Z,2.05
2023-01-18T07:02:39.422Z,2.17
2023-01-18T07:05:07.000Z,2.29
2023-01-18T07:07:34.265Z,1.92
2023-01-18T07:10:01.390Z,2.04
2023-01-18T07:12:30.813Z,1.96
2023-01-18T07:14:58.225Z,2.30
2023-01-18T07:17:25.464Z,2.41
2023-01-18T07:19:52.687Z,2.60
2023-01-18T07:22:19.801Z,2.79
2023-01-18T07:24:47.012Z,2.36
2023-01-18T07:27:14.232Z,2.36
2023-01-18T07:29:41.299Z,2.46
2023-01-18T07:32:08.484Z,2.42
2023-01-18T07:34:35.599Z,2.36
2023-01-18T07:37:02.766Z,2.57
2023-01-18T07:39:29.992Z,2.42
2023-01-18T07:41:57.156Z,2.41
2023-01-18T07:44:24.348Z,2.33
2023-01-18T07:46:51.516Z,2.31
2023-01-18T07:49:18.559Z,2.17
2023-01-18T07:51:45.683Z,2.13
2023-01-18T07:54:12.895Z,1.70
2023-01-18T07:56:40.391Z,2.05
2023-01-18T07:59:07.581Z,2.41
2023-01-18T08:01:34.804Z,2.65
2023-01-18T08:04:01.927Z,2.39
2023-01-18T08:06:29.084Z,2.41
2023-01-18T08:08:56.863Z,1.93
2023-01-18T08:11:24.541Z,2.09
2023-01-18T08:13:52.942Z,2.35
2023-01-18T08:16:20.426Z,2.57
2023-01-18T08:18:50.981Z,2.63
2023-01-18T08:21:18.509Z,2.38
2023-01-18T08:23:45.605Z,2.45
2023-01-18T08:26:15.139Z,2.47
2023-01-18T08:28:44.845Z,2.49
2023-01-18T08:31:15.531Z,2.83
2023-01-18T08:33:46.105Z,2.97
2023-01-18T08:36:16.598Z,2.62
2023-01-18T08:38:47.195Z,2.37
2023-01-18T08:41:14.307Z,2.67
2023-01-18T08:43:41.431Z,2.74
2023-01-18T08:46:08.687Z,2.50
2023-01-18T08:48:35.781Z,2.55
2023-01-18T08:51:06.332Z,2.81
2023-01-18T08:53:33.609Z,3.02
2023-01-18T08:56:05.886Z,2.93
2023-01-18T08:58:33.491Z,3.02
2023-01-18T09:01:08.487Z,2.88
2023-01-18T09:03:36.412Z,2.95
2023-01-18T09:06:05.966Z,3.05
2023-01-18T09:08:33.055Z,2.79
2023-01-18T09:11:08.550Z,2.87
2023-01-18T09:13:35.732Z,2.91
2023-01-18T09:16:05.751Z,2.92
2023-01-18T09:18:33.937Z,2.91
2023-01-18T09:21:06.723Z,3.05
2023-01-18T09:23:34.831Z,3.20
2023-01-18T09:26:16.988Z,3.22
2023-01-18T09:28:47.348Z,3.27
2023-01-18T09:31:14.848Z,3.15
2023-01-18T09:33:51.210Z,3.13
2023-01-18T09:36:21.687Z,3.03
2023-01-18T09:38:48.811Z,3.08
2023-01-18T09:41:25.905Z,3.27
2023-01-18T09:43:57.186Z,3.10
2023-01-18T09:46:25.498Z,3.28
2023-01-18T09:48:57.901Z,3.32
2023-01-18T09:51:59.395Z,3.35
2023-01-18T09:54:34.530Z,3.28
2023-01-18T09:57:31.524Z,3.31
2023-01-18T10:00:00.748Z,3.13
2023-01-18T10:02:39.514Z,3.08
2023-01-18T10:05:21.542Z,3.04
2023-01-18T10:08:37.999Z,3.22
2023-01-18T10:11:18.167Z,2.85
2023-01-18T10:14:03.309Z,2.66
2023-01-18T10:16:32.629Z,3.09
2023-01-18T10:19:01.685Z,3.33
2023-01-18T10:21:43.188Z,3.19
2023-01-18T10:24:33.376Z,3.10
2023-01-18T10:27:17.376Z,3.21
2023-01-18T10:29:57.380Z,2.92
2023-01-18T10:32:26.435Z,3.13
2023-01-18T10:34:53.776Z,3.07
2023-01-18T10:37:45.303Z,3.18
2023-01-18T10:40:14.792Z,3.16
2023-01-18T10:42:57.376Z,3.19
2023-01-18T10:45:28.565Z,3.16
2023-01-18T10:47:57.146Z,2.97
2023-01-18T10:50:34.516Z,2.71
2023-01-18T10:53:31.639Z,2.97
2023-01-18T10:56:16.669Z,3.13
2023-01-18T10:58:52.768Z,3.11
2023-01-18T11:01:23.537Z,3.29
2023-01-18T11:03:55.441Z,2.79
2023-01-18T11:06:24.540Z,2.84
2023-01-18T11:08:52.334Z,2.77
2023-01-18T11:11:51.046Z,2.90
2023-01-18T11:14:29.660Z,2.99
2023-01-18T11:17:11.548Z,3.11
2023-01-18T11:19:39.459Z,3.17
2023-01-18T11:22:33.782Z,2.83
2023-01-18T11:25:00.959Z,3.02
2023-01-18T11:27:28.396Z,2.98
2023-01-18T11:29:55.567Z,2.88
2023-01-18T11:32:28.935Z,2.95
2023-01-18T11:35:02.544Z,2.83
2023-01-18T11:37:40.080Z,2.79
2023-01-18T11:40:19.306Z,2.92
2023-01-18T11:42:49.338Z,2.94
2023-01-18T11:45:37.848Z,2.97
2023-01-18T11:48:30.674Z,2.98
2023-01-18T11:51:07.332Z,2.73
2023-01-18T11:53:41.650Z,2.84
2023-01-18T11:56:20.534Z,2.55
2023-01-18T11:58:49.681Z,2.75
2023-01-18T12:01:21.843Z,2.77
2023-01-18T12:03:56.443Z,2.75
2023-01-18T12:06:46.565Z,2.81
2023-01-18T12:09:34.068Z,3.02
2023-01-18T12:12:27.320Z,2.91
2023-01-18T12:15:09.760Z,2.36
2023-01-18T12:18:11.543Z,2.52
2023-01-18T12:20:59.579Z,2.66
2023-01-18T12:23:42.407Z,2.92
2023-01-18T12:26:38.379Z,2.79
2023-01-18T12:29:35.170Z,2.74
2023-01-18T12:32:33.080Z,2.97
2023-01-18T12:35:23.578Z,2.67
2023-01-18T12:38:09.286Z,2.72
2023-01-18T12:40:44.851Z,2.73
2023-01-18T12:43:25.436Z,2.62
2023-01-18T12:46:21.739Z,2.95
2023-01-18T12:48:59.853Z,2.80
2023-01-18T12:51:32.524Z,2.93
2023-01-18T12:54:05.448Z,3.13
2023-01-18T12:56:38.594Z,3.14
2023-01-18T12:59:18.334Z,2.72
2023-01-18T13:02:00.623Z,2.94
2023-01-18T13:04:33.561Z,3.00
2023-01-18T13:07:07.354Z,2.89
2023-01-18T13:09:40.686Z,2.91
2023-01-18T13:12:08.464Z,3.01
2023-01-18T13:14:51.421Z,2.83
2023-01-18T13:17:22.222Z,2.84
2023-01-18T13:20:00.431Z,2.68
2023-01-18T13:22:52.791Z,2.56
2023-01-18T13:25:34.005Z,2.75
2023-01-18T13:28:18.186Z,2.67
2023-01-18T13:30:53.491Z,2.76
2023-01-18T13:33:27.178Z,2.90
2023-01-18T13:36:14.335Z,2.82
2023-01-18T13:38:56.347Z,3.00
2023-01-18T13:41:26.128Z,2.97
2023-01-18T13:43:56.881Z,3.05
2023-01-18T13:46:25.566Z,3.12
2023-01-18T13:48:57.605Z,2.62
2023-01-18T13:51:47.754Z,2.72
2023-01-18T13:54:19.607Z,2.62
2023-01-18T13:57:02.118Z,2.46
2023-01-18T13:59:44.695Z,2.27
2023-01-18T14:02:23.809Z,2.59
2023-01-18T14:05:07.328Z,2.77
2023-01-18T14:07:45.039Z,2.99
2023-01-18T14:10:25.396Z,2.83
2023-01-18T14:12:55.096Z,3.09
2023-01-18T14:15:50.298Z,3.30
2023-01-18T14:18:24.594Z,3.29
2023-01-18T14:21:22.686Z,3.28
2023-01-18T14:24:09.946Z,2.82
2023-01-18T14:26:41.237Z,3.04
2023-01-18T14:29:36.237Z,2.06
2023-01-18T14:32:06.877Z,2.64
2023-01-18T14:34:38.810Z,2.90
2023-01-18T14:37:33.650Z,2.92
2023-01-18T14:40:12.945Z,3.03
2023-01-18T14:43:06.115Z,3.17
2023-01-18T14:45:39.048Z,3.00
2023-01-18T14:48:10.222Z,2.44
2023-01-18T14:50:45.991Z,2.56
2023-01-18T14:53:27.402Z,2.83
2023-01-18T14:56:26.239Z,3.06
2023-01-18T14:58:55.279Z,3.21
2023-01-18T15:01:36.310Z,2.90
2023-01-18T15:04:06.734Z,2.75
2023-01-18T15:06:40.037Z,2.87
2023-01-18T15:09:09.753Z,2.94
2023-01-18T15:11:38.661Z,2.88
2023-01-18T15:14:28.047Z,2.91
2023-01-18T15:16:57.171Z,2.80
2023-01-18T15:19:34.448Z,2.94
2023-01-18T15:22:04.338Z,3.05
2023-01-18T15:24:39.808Z,2.52
2023-01-18T15:27:12.786Z,2.67
2023-01-18T15:29:40.135Z,2.53
2023-01-18T15:32:14.189Z,2.31
2023-01-18T15:34:45.305Z,2.51
2023-01-18T15:37:18.951Z,2.78
2023-01-18T15:39:56.759Z,2.77
2023-01-18T15:42:39.203Z,2.75
2023-01-18T15:45:18.034Z,2.88
2023-01-18T15:47:52.086Z,2.72
2023-01-18T15:50:21.295Z,2.81
2023-01-18T15:53:02.030Z,2.38
2023-01-18T15:55:40.153Z,2.25
2023-01-18T15:58:44.610Z,2.49
2023-01-18T16:01:11.725Z,2.31
2023-01-18T16:03:41.778Z,2.28
2023-01-18T16:06:13.798Z,1.95
2023-01-18T16:09:13.839Z,1.06
2023-01-18T16:11:40.921Z,1.80
2023-01-18T16:14:31.411Z,1.79
2023-01-18T16:17:23.744Z,2.00
2023-01-18T16:19:58.762Z,2.43
2023-01-18T16:22:35.932Z,1.85
2023-01-18T16:25:09.729Z,2.04
2023-01-18T16:27:53.052Z,1.79
2023-01-18T16:30:30.162Z,2.14
2023-01-18T16:33:10.147Z,2.05
2023-01-18T16:35:39.938Z,2.12
2023-01-18T16:38:14.756Z,2.22
2023-01-18T16:40:45.082Z,2.01
2023-01-18T16:43:18.277Z,2.25
2023-01-18T16:45:47.775Z,2.28
2023-01-18T16:48:21.369Z,2.30
2023-01-18T16:50:49.561Z,2.25
2023-01-18T16:53:17.590Z,1.88
2023-01-18T16:55:45.127Z,2.01
2023-01-18T16:58:16.434Z,1.92
2023-01-18T17:01:02.233Z,2.03
2023-01-18T17:03:29.550Z,2.06
2023-01-18T17:05:56.729Z,1.97
2023-01-18T17:08:23.863Z,1.40
2023-01-18T17:10:52.245Z,1.00
2023-01-18T17:13:19.421Z,1.52
2023-01-18T17:15:46.810Z,1.67
2023-01-18T17:18:17.097Z,1.88
2023-01-18T17:20:44.798Z,1.48
2023-01-18T17:23:12.247Z,1.71
2023-01-18T17:25:39.818Z,1.40
2023-01-18T17:28:08.086Z,1.47
2023-01-18T17:30:35.262Z,1.74
2023-01-18T17:33:02.574Z,2.07
2023-01-18T17:35:32.097Z,1.68
2023-01-18T17:38:05.297Z,1.64
2023-01-18T17:40:43.389Z,1.80
2023-01-18T17:43:16.916Z,1.92
2023-01-18T17:45:58.722Z,1.58
2023-01-18T17:48:27.739Z,1.82
2023-01-18T17:50:54.846Z,1.81
2023-01-18T17:53:21.930Z,1.83
2023-01-18T17:55:49.432Z,1.91
2023-01-18T17:58:16.571Z,1.85
2023-01-18T18:00:43.709Z,1.87
2023-01-18T18:03:10.850Z,1.39
2023-01-18T18:05:38.002Z,1.46
2023-01-18T18:08:06.365Z,1.37
2023-01-18T18:10:33.492Z,1.69
2023-01-18T18:13:01.015Z,1.61
2023-01-18T18:15:28.365Z,1.87
2023-01-18T18:17:55.470Z,2.10
2023-01-18T18:20:22.986Z,1.52
2023-01-18T18:22:50.321Z,1.83
2023-01-18T18:25:18.021Z,1.72
2023-01-18T18:27:46.811Z,1.85
2023-01-18T18:30:16.829Z,1.98
2023-01-18T18:32:44.065Z,2.01
2023-01-18T18:35:24.337Z,1.76
2023-01-18T18:37:53.761Z,1.86
2023-01-18T18:40:20.998Z,1.80
2023-01-18T18:43:00.652Z,1.73
2023-01-18T18:45:29.578Z,1.66
2023-01-18T18:47:56.693Z,1.70
2023-01-18T18:50:23.846Z,1.81
2023-01-18T18:52:51.019Z,1.79
2023-01-18T18:55:19.169Z,1.97
2023-01-18T18:57:46.291Z,1.95
2023-01-18T19:00:14.131Z,2.07
2023-01-18T19:02:41.324Z,1.92
2023-01-18T19:05:09.068Z,1.93
2023-01-18T19:07:36.359Z,1.99
2023-01-18T19:10:05.280Z,2.02
2023-01-18T19:12:32.537Z,1.58
2023-01-18T19:14:59.740Z,1.83
2023-01-18T19:17:30.718Z,1.92
2023-01-18T19:19:58.852Z,2.11
2023-01-18T19:22:26.316Z,2.25
2023-01-18T19:24:53.539Z,2.20
2023-01-18T19:27:24.749Z,2.18
2023-01-18T19:29:53.493Z,2.02
2023-01-18T19:32:21.515Z,1.80
2023-01-18T19:34:48.665Z,1.91
2023-01-18T19:37:15.953Z,2.13
2023-01-18T19:39:43.060Z,1.37
2023-01-18T19:42:10.178Z,1.77
2023-01-18T19:44:37.272Z,1.87
2023-01-18T19:47:04.485Z,1.70
2023-01-18T19:49:31.672Z,1.78
2023-01-18T19:51:58.893Z,2.04
2023-01-18T19:54:26.273Z,1.98
2023-01-18T19:56:53.387Z,1.75
2023-01-18T19:59:20.565Z,1.82
2023-01-18T20:01:47.842Z,2.10
2023-01-18T20:04:15.051Z,2.06
2023-01-18T20:06:45.074Z,2.28
2023-01-18T20:09:20.289Z,2.09
2023-01-18T20:11:48.905Z,2.16
2023-01-18T20:14:16.705Z,2.17
2023-01-18T20:16:46.037Z,1.93
2023-01-18T20:19:14.734Z,1.90
2023-01-18T20:21:41.898Z,2.15
2023-01-18T20:24:09.479Z,2.26
2023-01-18T20:26:40.019Z,2.43
2023-01-18T20:29:08.104Z,1.91
2023-01-18T20:31:37.172Z,2.04
2023-01-18T20:34:05.395Z,2.14
2023-01-18T20:36:34.964Z,1.98
2023-01-18T20:39:03.628Z,1.90
2023-01-18T20:41:30.915Z,2.05
2023-01-18T20:43:58.041Z,2.10
2023-01-18T20:46:25.264Z,2.26
2023-01-18T20:48:52.348Z,2.37
2023-01-18T20:51:19.452Z,2.46
2023-01-18T20:53:46.737Z,2.41
2023-01-18T20:56:28.473Z,2.45
2023-01-18T20:58:57.266Z,2.09
2023-01-18T21:01:31.485Z,2.21
2023-01-18T21:04:00.134Z,2.24
2023-01-18T21:06:27.540Z,2.53
2023-01-18T21:08:56.252Z,2.56
2023-01-18T21:11:25.483Z,2.52
2023-01-18T21:13:56.419Z,2.22
2023-01-18T21:16:23.850Z,2.16
2023-01-18T21:18:52.802Z,2.28
2023-01-18T21:21:20.531Z,2.32
2023-01-18T21:23:47.670Z,2.24
2023-01-18T21:26:15.153Z,2.32
2023-01-18T21:28:42.338Z,2.40
2023-01-18T21:31:09.563Z,2.40
2023-01-18T21:33:37.374Z,2.22
2023-01-18T21:36:06.862Z,2.30
2023-01-18T21:38:34.368Z,2.17
2023-01-18T21:41:21.782Z,2.24
2023-01-18T21:44:08.728Z,2.16
2023-01-18T21:46:36.772Z,2.35
2023-01-18T21:49:05.126Z,2.45
2023-01-18T21:51:50.690Z,2.42
2023-01-18T21:54:18.549Z,2.29
2023-01-18T21:56:47.342Z,2.45
2023-01-18T21:59:14.823Z,2.34
2023-01-18T22:01:44.935Z,2.43
2023-01-18T22:04:33.407Z,2.63
2023-01-18T22:07:00.865Z,2.45
2023-01-18T22:09:29.707Z,2.10
2023-01-18T22:11:57.513Z,2.33
2023-01-18T22:14:25.773Z,2.34
2023-01-18T22:16:53.417Z,2.25
2023-01-18T22:19:20.665Z,2.47
2023-01-18T22:21:48.495Z,2.47
2023-01-18T22:24:17.648Z,2.08
2023-01-18T22:26:45.797Z,2.38
2023-01-18T22:29:13.754Z,2.59
2023-01-18T22:31:40.814Z,2.66
2023-01-18T22:34:17.443Z,2.22
2023-01-18T22:36:44.559Z,2.28
2023-01-18T22:39:12.777Z,2.16
2023-01-18T22:41:40.006Z,2.00
2023-01-18T22:44:07.132Z,2.33
2023-01-18T22:46:34.471Z,2.32
2023-01-18T22:49:01.639Z,2.23
2023-01-18T22:51:28.859Z,2.38
2023-01-18T22:53:56.476Z,2.38
2023-01-18T22:56:25.492Z,2.54
2023-01-18T22:58:52.912Z,2.59
2023-01-18T23:01:26.642Z,2.45
2023-01-18T23:03:56.381Z,2.30
2023-01-18T23:06:23.541Z,2.51
2023-01-18T23:08:51.158Z,2.07
2023-01-18T23:11:21.872Z,2.27
2023-01-18T23:14:10.372Z,2.27
2023-01-18T23:16:56.583Z,2.45
2023-01-18T23:19:28.194Z,2.27
2023-01-18T23:21:56.793Z,2.52
2023-01-18T23:24:24.570Z,2.60
2023-01-18T23:26:52.427Z,2.56
2023-01-18T23:29:20.290Z,2.65
2023-01-18T23:31:47.585Z,2.60
2023-01-18T23:34:14.883Z,2.47
2023-01-18T23:36:42.042Z,2.46
2023-01-18T23:39:27.704Z,2.33
2023-01-18T23:42:13.374Z,2.38
2023-01-18T23:44:58.926Z,2.42
2023-01-18T23:47:46.079Z,2.63
2023-01-18T23:50:31.759Z,2.63
2023-01-18T23:53:20.881Z,2.27
2023-01-18T23:55:51.768Z,2.38
2023-01-18T23:58:18.911Z,2.46
